Pagina principale
METAR-TAF:

METAR-TAF

Aeroporti :

Aeroporto di Lamezia Terme

Lamezia Terme, Italia

latitudine: 38-54N, longitudine: 016-15E, altezza: 15 m

Osservazione

Il bollettino è stato emesso 26 minuti fa, alle 09:50 UTC
Vento 7 kt da ovest/sud-ovest
Temperature 17°C
Umidità 59%
Pressione 1014 hPa
Visibilità 10 km o più

METAR: LICA 090950Z AUTO 25007KT 9999 NCD 17/09 Q1014

Ora: 11:16 (10:16 UTC)

Previsione

Il bollettino è stato emesso 5 ore e 16 minuti fa, alle 05:00 UTC
Previsione valida dal 09 alle 06 UTC al 10 alle 06 UTC
Vento 12 kt da est/nord-est
Visibilità 10 km o più
Nubi sparse ad un'altezza di 4000 ft
Evoluzione graduale
dal 09 alle 09 UTC al 09 alle 11 UTC
Vento 10 kt da ovest
Evoluzione graduale
dal 09 alle 18 UTC al 09 alle 20 UTC
Vento 4 kt da direzioni variabili

TAF: LICA 090500Z 0906/1006 07012KT 9999 SCT040 BECMG 0909/0911 26010KT BECMG 0918/0920 VRB04KT

Osservazioni e previsioni meteorologiche di più di 4000 aeroporti (messaggi METAR e TAF).

Le stazioni disponibili sono rappresentate dai dischi gialli e rossi sulla carta.

Puntare il mouse per vedere il nome della stazione.

Clicca sopra per visualizzare le osservazioni e previsioni meteorologiche.

Per cambiare la mappa : fare clic sui pulsanti verdi con una croce nera per ingrandire, il pulsante verde con un trattino per diminuire, o sulla freccia verde per le mappe adiacenti.


METAR-TAF: